createdAt,value
2019-05-14T00:01:42.218Z,58.81
2019-05-14T00:04:14.549Z,58.82
2019-05-14T00:06:47.110Z,57.98
2019-05-14T00:09:21.508Z,58.07
2019-05-14T00:11:54.018Z,58.32
2019-05-14T00:14:38.769Z,58.42
2019-05-14T00:17:01.745Z,58.98
2019-05-14T00:19:36.015Z,58.38
2019-05-14T00:22:08.665Z,58.45
2019-05-14T00:24:41.749Z,58.92
2019-05-14T00:27:14.895Z,58.75
2019-05-14T00:29:47.645Z,58.66
2019-05-14T00:32:21.652Z,58.22
2019-05-14T00:34:54.620Z,58.80
2019-05-14T00:37:27.150Z,58.54
2019-05-14T00:40:01.328Z,58.47
2019-05-14T00:42:34.185Z,58.67
2019-05-14T00:45:08.372Z,58.33
2019-05-14T00:47:41.761Z,58.73
2019-05-14T00:50:15.070Z,58.97
2019-05-14T00:52:47.815Z,59.14
2019-05-14T00:55:22.375Z,59.36
2019-05-14T00:57:54.940Z,59.50
2019-05-14T01:00:31.169Z,60.16
2019-05-14T01:03:03.280Z,60.36
2019-05-14T01:05:36.065Z,60.95
2019-05-14T01:08:08.827Z,61.18
2019-05-14T01:10:41.883Z,61.99
2019-05-14T01:13:16.795Z,62.18
2019-05-14T01:15:51.893Z,62.80
2019-05-14T01:18:23.685Z,63.34
2019-05-14T01:20:57.425Z,63.90
2019-05-14T01:23:32.064Z,64.90
2019-05-14T01:26:04.670Z,64.97
2019-05-14T01:28:37.481Z,65.58
2019-05-14T01:31:11.399Z,66.24
2019-05-14T01:33:44.641Z,66.46
2019-05-14T01:36:17.196Z,67.18
2019-05-14T01:38:51.318Z,67.50
2019-05-14T01:41:24.161Z,67.95
2019-05-14T01:43:57.220Z,68.36
2019-05-14T01:46:31.632Z,68.88
2019-05-14T01:49:05.086Z,69.25
2019-05-14T01:51:38.001Z,69.60
2019-05-14T01:54:11.947Z,70.46
2019-05-14T01:56:44.986Z,70.22
2019-05-14T01:59:17.771Z,70.50
2019-05-14T02:01:51.778Z,71.25
2019-05-14T02:04:24.670Z,71.07
2019-05-14T02:06:57.612Z,71.56
2019-05-14T02:09:31.093Z,71.84
2019-05-14T02:12:03.746Z,72.04
2019-05-14T02:14:36.436Z,72.26
2019-05-14T02:17:09.030Z,72.51
2019-05-14T02:19:42.746Z,72.96
2019-05-14T02:22:15.706Z,73.11
2019-05-14T02:24:48.385Z,73.56
2019-05-14T02:27:21.483Z,73.67
2019-05-14T02:29:54.161Z,74.02
2019-05-14T02:32:29.698Z,74.11
2019-05-14T02:35:01.113Z,74.23
2019-05-14T02:37:34.725Z,74.50
2019-05-14T02:40:10.168Z,74.63
2019-05-14T02:42:43.116Z,74.82
2019-05-14T02:45:19.522Z,74.76
2019-05-14T02:47:50.648Z,74.81
2019-05-14T02:50:23.425Z,75.22
2019-05-14T02:52:59.609Z,75.33
2019-05-14T02:55:30.712Z,75.49
2019-05-14T02:58:03.742Z,75.80
2019-05-14T03:00:40.436Z,76.17
2019-05-14T03:03:10.846Z,76.44
2019-05-14T03:05:43.365Z,76.68
2019-05-14T03:08:19.486Z,77.14
2019-05-14T03:10:50.845Z,77.29
2019-05-14T03:13:25.347Z,77.71
2019-05-14T03:15:59.416Z,77.76
2019-05-14T03:18:32.380Z,78.06
2019-05-14T03:21:05.001Z,78.05
2019-05-14T03:23:39.392Z,78.23
2019-05-14T03:26:12.103Z,78.10
2019-05-14T03:28:44.867Z,77.49
2019-05-14T03:31:22.343Z,75.18
2019-05-14T03:33:53.275Z,73.46
2019-05-14T03:36:32.399Z,74.08
2019-05-14T03:39:00.531Z,74.08
2019-05-14T03:41:33.501Z,75.22
2019-05-14T03:44:09.609Z,70.37
2019-05-14T03:46:49.473Z,65.68
2019-05-14T03:49:15.115Z,63.87
2019-05-14T03:51:49.757Z,62.51
2019-05-14T03:54:22.629Z,61.54
2019-05-14T03:56:55.333Z,59.77
2019-05-14T03:59:29.161Z,63.80
2019-05-14T04:02:02.074Z,67.55
2019-05-14T04:04:35.085Z,67.12
2019-05-14T04:07:10.248Z,62.74
2019-05-14T04:09:44.646Z,62.67
2019-05-14T04:12:19.198Z,68.05
2019-05-14T04:14:55.128Z,71.35
2019-05-14T04:17:36.736Z,73.19
2019-05-14T04:20:04.310Z,74.66
2019-05-14T04:22:39.257Z,74.67
2019-05-14T04:25:13.702Z,74.73
2019-05-14T04:27:49.466Z,74.35
2019-05-14T04:30:24.302Z,73.61
2019-05-14T04:32:59.577Z,69.32
2019-05-14T04:35:32.497Z,66.69
2019-05-14T04:38:05.337Z,63.31
2019-05-14T04:40:40.019Z,53.62
2019-05-14T04:43:12.660Z,47.08
2019-05-14T04:45:45.607Z,44.16
2019-05-14T04:48:31.188Z,44.72
2019-05-14T04:50:53.332Z,42.02
2019-05-14T04:53:25.890Z,43.59
2019-05-14T04:56:00.139Z,42.62
2019-05-14T04:58:33.186Z,41.71
2019-05-14T05:01:09.558Z,40.81
2019-05-14T05:03:40.476Z,41.51
2019-05-14T05:06:13.386Z,41.11
2019-05-14T05:08:49.435Z,40.74
2019-05-14T05:11:21.616Z,41.53
2019-05-14T05:13:54.806Z,40.74
2019-05-14T05:16:29.570Z,40.10
2019-05-14T05:19:01.811Z,40.00
2019-05-14T05:21:34.237Z,37.75
2019-05-14T05:24:09.022Z,39.88
2019-05-14T05:26:41.215Z,40.45
2019-05-14T05:29:13.850Z,37.64
2019-05-14T05:31:48.793Z,36.94
2019-05-14T05:34:21.085Z,38.80
2019-05-14T05:36:53.711Z,42.31
2019-05-14T05:39:28.207Z,49.04
2019-05-14T05:42:00.540Z,52.21
2019-05-14T05:44:34.323Z,55.23
2019-05-14T05:47:09.235Z,57.67
2019-05-14T05:49:41.419Z,59.18
2019-05-14T05:52:14.166Z,60.17
2019-05-14T05:54:49.051Z,60.17
2019-05-14T05:57:21.546Z,61.09
2019-05-14T05:59:54.100Z,60.61
2019-05-14T06:02:28.941Z,61.73
2019-05-14T06:05:01.080Z,62.45
2019-05-14T06:07:34.135Z,63.90
2019-05-14T06:10:09.086Z,65.07
2019-05-14T06:12:41.791Z,65.63
2019-05-14T06:15:14.533Z,66.77
2019-05-14T06:17:49.208Z,66.50
2019-05-14T06:20:21.680Z,67.45
2019-05-14T06:22:54.337Z,70.03
2019-05-14T06:25:30.875Z,70.12
2019-05-14T06:28:01.365Z,71.46
2019-05-14T06:30:39.849Z,73.26
2019-05-14T06:33:13.695Z,73.90
2019-05-14T06:35:48.602Z,74.52
2019-05-14T06:38:21.345Z,75.28
2019-05-14T06:40:53.947Z,77.01
2019-05-14T06:43:28.727Z,77.01
2019-05-14T06:46:01.270Z,77.63
2019-05-14T06:48:34.910Z,78.67
2019-05-14T06:51:08.863Z,78.76
2019-05-14T06:53:41.985Z,78.17
2019-05-14T06:56:17.888Z,76.86
2019-05-14T06:58:49.418Z,77.13
2019-05-14T07:01:21.951Z,76.08
2019-05-14T07:03:54.730Z,76.50
2019-05-14T07:06:29.103Z,76.82
2019-05-14T07:09:01.071Z,77.56
2019-05-14T07:11:34.471Z,77.56
2019-05-14T07:14:11.201Z,76.94
2019-05-14T07:16:41.021Z,76.25
2019-05-14T07:19:15.787Z,76.54
2019-05-14T07:21:49.141Z,75.48
2019-05-14T07:24:22.950Z,75.91
2019-05-14T07:26:58.345Z,76.26
2019-05-14T07:29:29.536Z,77.47
2019-05-14T07:32:02.071Z,77.38
2019-05-14T07:34:34.540Z,78.02
2019-05-14T07:37:09.359Z,77.92
2019-05-14T07:39:41.010Z,78.41
2019-05-14T07:42:13.535Z,78.87
2019-05-14T07:44:48.310Z,78.26
2019-05-14T07:47:19.890Z,79.85
2019-05-14T07:49:52.573Z,79.69
2019-05-14T07:52:24.932Z,79.79
2019-05-14T07:54:58.714Z,79.22
2019-05-14T07:57:31.231Z,80.48
2019-05-14T08:00:05.233Z,79.71
2019-05-14T08:02:38.073Z,80.52
2019-05-14T08:05:10.911Z,80.17
2019-05-14T08:07:43.270Z,81.24
2019-05-14T08:10:19.030Z,79.40
2019-05-14T08:12:51.391Z,79.12
2019-05-14T08:15:23.851Z,79.68
2019-05-14T08:17:58.582Z,80.86
2019-05-14T08:20:31.035Z,80.86
2019-05-14T08:23:04.878Z,79.74
2019-05-14T08:25:39.022Z,79.14
2019-05-14T08:28:11.653Z,79.41
2019-05-14T08:30:44.530Z,78.69
2019-05-14T08:33:18.601Z,78.97
2019-05-14T08:35:51.091Z,78.73
2019-05-14T08:38:23.712Z,78.54
2019-05-14T08:40:58.734Z,77.58
2019-05-14T08:43:30.371Z,78.27
2019-05-14T08:46:02.892Z,77.85
2019-05-14T08:48:35.352Z,76.67
2019-05-14T08:51:09.120Z,77.76
2019-05-14T08:53:42.870Z,76.41
2019-05-14T08:56:18.895Z,77.16
2019-05-14T08:58:50.551Z,75.75
2019-05-14T09:01:25.512Z,75.54
2019-05-14T09:03:59.538Z,75.45
2019-05-14T09:06:31.991Z,74.31
2019-05-14T09:09:06.091Z,71.69
2019-05-14T09:11:44.452Z,71.69
2019-05-14T09:14:12.332Z,71.51
2019-05-14T09:16:49.199Z,70.56
2019-05-14T09:19:19.401Z,70.58
2019-05-14T09:21:52.894Z,70.58
2019-05-14T09:24:25.232Z,70.25
2019-05-14T09:26:59.240Z,66.81
2019-05-14T09:29:31.931Z,66.81
2019-05-14T09:32:04.532Z,64.82
2019-05-14T09:34:39.208Z,65.91
2019-05-14T09:37:11.191Z,65.91
2019-05-14T09:39:43.731Z,63.23
2019-05-14T09:42:19.217Z,63.07
2019-05-14T09:44:50.271Z,63.07
2019-05-14T09:47:22.750Z,60.64
2019-05-14T09:49:55.411Z,61.53
2019-05-14T09:52:29.279Z,60.08
2019-05-14T09:55:01.871Z,59.12
2019-05-14T09:57:34.516Z,57.99
2019-05-14T10:00:14.307Z,57.67
2019-05-14T10:02:45.041Z,56.60
2019-05-14T10:05:19.471Z,55.68
2019-05-14T10:07:51.631Z,55.77
2019-05-14T10:10:24.112Z,54.12
2019-05-14T10:12:58.170Z,53.76
2019-05-14T10:15:30.771Z,54.27
2019-05-14T10:18:03.171Z,52.69
2019-05-14T10:20:44.447Z,51.83
2019-05-14T10:23:09.853Z,52.04
2019-05-14T10:25:46.731Z,50.52
2019-05-14T10:28:19.454Z,48.75
2019-05-14T10:30:56.450Z,48.72
2019-05-14T10:33:30.471Z,47.44
2019-05-14T10:36:03.291Z,47.75
2019-05-14T10:38:35.811Z,48.03
2019-05-14T10:41:09.047Z,46.57
2019-05-14T10:43:42.913Z,47.29
2019-05-14T10:46:15.671Z,46.33
2019-05-14T10:48:48.451Z,48.03
2019-05-14T10:51:21.091Z,46.37
2019-05-14T10:53:53.620Z,46.65
2019-05-14T10:56:29.484Z,47.71
2019-05-14T10:59:01.339Z,47.63
2019-05-14T11:01:33.803Z,47.46
2019-05-14T11:04:06.450Z,46.99
2019-05-14T11:06:41.832Z,46.81
2019-05-14T11:09:14.131Z,46.25
2019-05-14T11:11:46.754Z,46.12
2019-05-14T11:14:19.462Z,45.29
2019-05-14T11:16:51.730Z,45.53
2019-05-14T11:19:28.811Z,43.87
2019-05-14T11:22:01.331Z,45.27
2019-05-14T11:24:33.793Z,45.08
2019-05-14T11:27:06.392Z,44.05
2019-05-14T11:29:39.043Z,43.89
2019-05-14T11:32:11.455Z,43.81
2019-05-14T11:34:43.772Z,43.19
2019-05-14T11:37:18.552Z,42.64
2019-05-14T11:39:50.210Z,43.24
2019-05-14T11:42:23.972Z,43.17
2019-05-14T11:44:58.244Z,40.53
2019-05-14T11:47:30.692Z,43.29
2019-05-14T11:50:03.513Z,43.00
2019-05-14T11:52:35.892Z,41.11
2019-05-14T11:55:11.125Z,41.67
2019-05-14T11:57:43.460Z,40.86
2019-05-14T12:00:19.320Z,40.79
2019-05-14T12:02:51.953Z,41.34
2019-05-14T12:05:24.507Z,40.01
2019-05-14T12:07:58.330Z,39.35
2019-05-14T12:10:30.739Z,38.81
2019-05-14T12:13:04.371Z,40.58
2019-05-14T12:15:38.861Z,40.48
2019-05-14T12:18:11.190Z,39.78
2019-05-14T12:20:43.771Z,40.31
2019-05-14T12:23:19.217Z,40.43
2019-05-14T12:25:51.550Z,40.90
2019-05-14T12:28:24.011Z,39.02
2019-05-14T12:30:58.332Z,40.32
2019-05-14T12:33:31.779Z,38.64
2019-05-14T12:36:04.391Z,38.07
2019-05-14T12:38:38.269Z,37.60
2019-05-14T12:41:10.931Z,38.44
2019-05-14T12:43:43.887Z,38.54
2019-05-14T12:46:16.795Z,38.37
2019-05-14T12:48:50.692Z,39.24
2019-05-14T12:51:23.172Z,37.92
2019-05-14T12:53:58.106Z,38.32
2019-05-14T12:56:29.731Z,39.68
2019-05-14T12:59:02.122Z,39.98
2019-05-14T13:01:34.638Z,40.18
2019-05-14T13:04:08.487Z,39.18
2019-05-14T13:06:43.322Z,37.43
2019-05-14T13:09:19.140Z,37.32
2019-05-14T13:11:49.814Z,37.30
2019-05-14T13:14:22.190Z,38.55
2019-05-14T13:16:54.881Z,40.31
2019-05-14T13:19:28.463Z,39.07
2019-05-14T13:22:13.117Z,40.66
2019-05-14T13:24:35.171Z,40.05
2019-05-14T13:27:09.588Z,39.25
2019-05-14T13:29:42.132Z,38.37
2019-05-14T13:32:14.771Z,37.26
2019-05-14T13:34:56.101Z,37.78
2019-05-14T13:37:28.913Z,37.48
2019-05-14T13:40:01.371Z,36.51
2019-05-14T13:42:38.848Z,38.14
2019-05-14T13:45:10.810Z,39.15
2019-05-14T13:47:43.417Z,40.50
2019-05-14T13:50:19.432Z,40.13
2019-05-14T13:53:03.137Z,38.14
2019-05-14T13:55:28.043Z,37.32
2019-05-14T13:57:59.985Z,38.57
2019-05-14T14:00:32.753Z,37.51
2019-05-14T14:03:09.289Z,38.07
2019-05-14T14:05:40.851Z,37.46
2019-05-14T14:08:13.391Z,36.83
2019-05-14T14:10:53.059Z,37.31
2019-05-14T14:13:22.050Z,37.75
2019-05-14T14:15:55.610Z,38.28
2019-05-14T14:18:29.403Z,36.62
2019-05-14T14:21:02.380Z,35.76
2019-05-14T14:23:39.049Z,35.81
2019-05-14T14:26:11.990Z,36.18
2019-05-14T14:28:44.529Z,35.22
2019-05-14T14:31:18.949Z,35.52
2019-05-14T14:33:52.071Z,36.43
2019-05-14T14:36:24.721Z,36.50
2019-05-14T14:38:58.826Z,35.35
2019-05-14T14:41:31.034Z,36.50
2019-05-14T14:44:03.830Z,34.15
2019-05-14T14:46:36.530Z,34.98
2019-05-14T14:49:10.746Z,35.57
2019-05-14T14:51:45.151Z,36.17
2019-05-14T14:54:17.573Z,34.75
2019-05-14T14:56:50.253Z,33.69
2019-05-14T14:59:23.204Z,33.28
2019-05-14T15:01:59.399Z,33.58
2019-05-14T15:04:29.998Z,33.83
2019-05-14T15:07:02.864Z,34.54
2019-05-14T15:09:35.456Z,35.92
2019-05-14T15:12:09.081Z,36.91
2019-05-14T15:14:41.851Z,36.40
2019-05-14T15:17:14.648Z,35.96
2019-05-14T15:19:49.898Z,36.15
2019-05-14T15:22:21.911Z,36.17
2019-05-14T15:24:54.511Z,37.26
2019-05-14T15:27:28.261Z,36.64
2019-05-14T15:30:00.992Z,36.59
2019-05-14T15:32:33.593Z,36.16
2019-05-14T15:35:11.039Z,35.33
2019-05-14T15:37:44.037Z,35.59
2019-05-14T15:40:22.094Z,36.65
2019-05-14T15:42:51.777Z,38.80
2019-05-14T15:45:24.220Z,38.54
2019-05-14T15:48:02.927Z,38.29
2019-05-14T15:50:32.680Z,38.65
2019-05-14T15:53:10.841Z,39.62
2019-05-14T15:55:40.380Z,39.27
2019-05-14T15:58:13.119Z,39.96
2019-05-14T16:00:45.722Z,40.83
2019-05-14T16:03:19.466Z,41.47
2019-05-14T16:05:52.170Z,41.55
2019-05-14T16:08:25.052Z,42.12
2019-05-14T16:11:00.252Z,42.62
2019-05-14T16:13:32.735Z,43.61
2019-05-14T16:16:05.441Z,43.35
2019-05-14T16:18:38.634Z,43.61
2019-05-14T16:21:11.986Z,44.32
2019-05-14T16:23:44.692Z,44.40
2019-05-14T16:26:18.760Z,45.39
2019-05-14T16:28:52.067Z,45.10
2019-05-14T16:31:24.765Z,45.42
2019-05-14T16:33:58.861Z,45.56
2019-05-14T16:36:32.342Z,45.94
2019-05-14T16:39:06.581Z,45.73
2019-05-14T16:41:39.476Z,45.97
2019-05-14T16:44:12.241Z,45.74
2019-05-14T16:46:44.915Z,45.63
2019-05-14T16:49:18.554Z,45.02
2019-05-14T16:51:51.426Z,45.57
2019-05-14T16:54:24.800Z,45.70
2019-05-14T16:56:57.467Z,44.64
2019-05-14T16:59:30.250Z,44.58
2019-05-14T17:02:02.994Z,44.80
2019-05-14T17:04:35.981Z,45.10
2019-05-14T17:07:09.563Z,44.86
2019-05-14T17:09:42.672Z,44.71
2019-05-14T17:12:15.160Z,45.46
2019-05-14T17:14:48.446Z,44.96
2019-05-14T17:17:21.541Z,44.79
2019-05-14T17:19:54.480Z,45.23
2019-05-14T17:22:32.616Z,45.55
2019-05-14T17:25:01.717Z,45.38
2019-05-14T17:27:35.306Z,45.35
2019-05-14T17:30:10.206Z,44.44
2019-05-14T17:32:42.916Z,44.41
2019-05-14T17:35:16.101Z,44.05
2019-05-14T17:37:48.861Z,43.97
2019-05-14T17:40:22.089Z,44.04
2019-05-14T17:42:54.851Z,44.44
2019-05-14T17:45:28.479Z,43.63
2019-05-14T17:48:01.106Z,44.47
2019-05-14T17:50:33.801Z,44.51
2019-05-14T17:53:06.405Z,45.15
2019-05-14T17:55:47.145Z,44.96
2019-05-14T17:58:13.850Z,44.77
2019-05-14T18:00:46.921Z,44.44
2019-05-14T18:03:19.885Z,44.40
2019-05-14T18:05:52.686Z,44.82
2019-05-14T18:08:25.641Z,44.92
2019-05-14T18:11:01.095Z,45.22
2019-05-14T18:13:32.856Z,45.60
2019-05-14T18:16:08.787Z,45.37
2019-05-14T18:18:41.125Z,44.94
2019-05-14T18:21:14.065Z,46.15
2019-05-14T18:23:48.980Z,45.14
2019-05-14T18:26:21.623Z,45.62
2019-05-14T18:28:54.401Z,45.94
2019-05-14T18:31:27.300Z,45.52
2019-05-14T18:34:00.286Z,45.56
2019-05-14T18:36:33.235Z,45.40
2019-05-14T18:39:09.190Z,45.63
2019-05-14T18:41:41.562Z,45.71
2019-05-14T18:44:14.236Z,46.45
2019-05-14T18:46:48.661Z,45.89
2019-05-14T18:49:21.956Z,46.17
2019-05-14T18:51:54.657Z,46.18
2019-05-14T18:54:29.366Z,46.77
2019-05-14T18:57:02.901Z,46.67
2019-05-14T18:59:35.562Z,46.71
2019-05-14T19:02:08.688Z,47.29
2019-05-14T19:04:41.641Z,47.28
2019-05-14T19:07:15.682Z,47.35
2019-05-14T19:09:49.432Z,47.41
2019-05-14T19:12:22.667Z,47.67
2019-05-14T19:14:54.988Z,47.77
2019-05-14T19:17:28.423Z,47.35
2019-05-14T19:20:02.331Z,47.57
2019-05-14T19:22:35.351Z,47.57
2019-05-14T19:25:09.419Z,46.71
2019-05-14T19:27:42.085Z,47.42
2019-05-14T19:30:15.006Z,47.14
2019-05-14T19:32:48.486Z,47.24
2019-05-14T19:35:21.226Z,46.04
2019-05-14T19:37:53.891Z,46.20
2019-05-14T19:40:28.196Z,46.45
2019-05-14T19:43:01.186Z,46.69
2019-05-14T19:45:34.246Z,45.94
2019-05-14T19:48:08.151Z,45.91
2019-05-14T19:50:41.110Z,46.73
2019-05-14T19:53:14.020Z,46.16
2019-05-14T19:55:48.487Z,46.47
2019-05-14T19:58:21.781Z,46.28
2019-05-14T20:00:54.297Z,46.14
2019-05-14T20:03:29.142Z,46.35
2019-05-14T20:06:01.422Z,46.35
2019-05-14T20:08:34.126Z,47.09
2019-05-14T20:11:06.969Z,47.53
2019-05-14T20:13:39.635Z,47.16
2019-05-14T20:16:12.635Z,47.02
2019-05-14T20:18:45.180Z,47.12
2019-05-14T20:21:17.990Z,47.41
2019-05-14T20:23:50.658Z,47.99
2019-05-14T20:26:23.366Z,47.60
2019-05-14T20:28:56.217Z,47.92
2019-05-14T20:31:29.652Z,48.20
2019-05-14T20:34:02.815Z,48.20
2019-05-14T20:36:35.606Z,48.20
2019-05-14T20:39:08.769Z,48.26
2019-05-14T20:41:41.587Z,48.02
2019-05-14T20:44:14.751Z,48.02
2019-05-14T20:46:48.922Z,48.40
2019-05-14T20:49:21.825Z,49.16
2019-05-14T20:51:54.450Z,49.16
2019-05-14T20:54:28.956Z,48.29
2019-05-14T20:57:01.441Z,48.29
2019-05-14T20:59:34.190Z,48.48
2019-05-14T21:02:08.429Z,48.48
2019-05-14T21:04:41.255Z,48.61
2019-05-14T21:07:14.046Z,48.75
2019-05-14T21:09:49.123Z,48.67
2019-05-14T21:12:21.531Z,48.50
2019-05-14T21:14:54.430Z,48.43
2019-05-14T21:17:28.269Z,48.72
2019-05-14T21:20:01.179Z,48.72
2019-05-14T21:22:33.920Z,49.11
2019-05-14T21:25:11.387Z,49.62
2019-05-14T21:27:48.298Z,49.62
2019-05-14T21:30:18.928Z,49.47
2019-05-14T21:32:51.318Z,49.78
2019-05-14T21:35:24.580Z,49.44
2019-05-14T21:37:59.371Z,49.44
2019-05-14T21:40:32.274Z,49.73
2019-05-14T21:43:05.100Z,50.06
2019-05-14T21:45:38.299Z,50.30
2019-05-14T21:48:11.300Z,50.47
2019-05-14T21:50:44.980Z,50.60
2019-05-14T21:53:19.089Z,50.60
2019-05-14T21:55:52.025Z,50.15
2019-05-14T21:58:24.736Z,50.21
2019-05-14T22:00:59.272Z,49.93
2019-05-14T22:03:32.810Z,49.93
2019-05-14T22:06:05.866Z,49.62
2019-05-14T22:08:39.346Z,49.62
2019-05-14T22:11:12.180Z,49.60
2019-05-14T22:13:44.740Z,50.18
2019-05-14T22:16:18.971Z,50.57
2019-05-14T22:18:51.627Z,50.05
2019-05-14T22:21:24.160Z,50.05
2019-05-14T22:23:58.742Z,50.10
2019-05-14T22:26:30.795Z,50.28
2019-05-14T22:29:03.625Z,50.31
2019-05-14T22:31:38.510Z,50.31
2019-05-14T22:34:10.687Z,49.96
2019-05-14T22:36:43.520Z,50.01
2019-05-14T22:39:19.811Z,50.43
2019-05-14T22:41:50.661Z,50.32
2019-05-14T22:44:23.165Z,49.84
2019-05-14T22:46:58.629Z,49.84
2019-05-14T22:49:30.650Z,50.33
2019-05-14T22:52:03.686Z,49.75
2019-05-14T22:54:38.478Z,50.32
2019-05-14T22:57:10.810Z,50.23
2019-05-14T22:59:43.320Z,50.68
2019-05-14T23:02:15.995Z,50.31
2019-05-14T23:04:49.290Z,50.31
2019-05-14T23:07:22.281Z,50.31
2019-05-14T23:09:54.945Z,50.50
2019-05-14T23:12:28.726Z,50.64
2019-05-14T23:15:01.381Z,49.89
2019-05-14T23:17:34.225Z,50.11
2019-05-14T23:20:09.165Z,50.49
2019-05-14T23:22:42.351Z,50.48
2019-05-14T23:25:15.141Z,50.48
2019-05-14T23:27:48.352Z,51.06
2019-05-14T23:30:33.695Z,51.06
2019-05-14T23:33:06.290Z,51.17
2019-05-14T23:35:39.356Z,50.96
2019-05-14T23:38:12.236Z,51.03
2019-05-14T23:40:45.005Z,51.24
2019-05-14T23:43:18.558Z,50.59
2019-05-14T23:45:51.330Z,50.59
2019-05-14T23:48:24.076Z,51.35
2019-05-14T23:50:58.439Z,51.34
2019-05-14T23:53:31.231Z,51.49
2019-05-14T23:56:03.771Z,51.39
2019-05-14T23:58:36.485Z,51.23
